Time;durP1;ratioP1;P1;durP2;ratioP2;P2;SDS_P1;SDS_P2;PMS_P1;PMS_P2;Temp;Humidity;BMP_temperature;BMP_pressure;BME280_temperature;BME280_humidity;BME280_pressure;Samples;Min_cycle;Max_cycle;Signal;HPM_P1;HPM_P2
2023/11/11 00:00:28;;;;;;;0.73;0.73;;;7.80;99.90;;;;;;6219325;28;20046;-77
2023/11/11 00:03:30;;;;;;;2.00;0.82;;;7.80;99.90;;;;;;6218922;28;20038;-77
2023/11/11 00:06:31;;;;;;;1.73;0.65;;;7.80;99.90;;;;;;6219607;28;20049;-77
2023/11/11 00:09:34;;;;;;;1.27;1.05;;;7.80;99.90;;;;;;6219116;28;20042;-77
2023/11/11 00:12:36;;;;;;;5.90;0.70;;;7.80;99.90;;;;;;6219149;28;20073;-77
2023/11/11 00:15:38;;;;;;;1.23;0.63;;;7.80;99.90;;;;;;6224073;28;20056;-77
2023/11/11 00:21:49;;;;;;;1.17;0.80;;;7.90;99.90;;;;;;6155368;28;20046;-78
2023/11/11 00:24:54;;;;;;;1.83;0.98;;;7.90;99.90;;;;;;6154499;28;20050;-77
2023/11/11 00:27:56;;;;;;;1.80;0.90;;;7.90;99.90;;;;;;6155335;28;20043;-78
2023/11/11 00:30:57;;;;;;;1.60;1.13;;;7.90;99.90;;;;;;6169289;28;20053;-78
2023/11/11 00:33:59;;;;;;;1.77;0.90;;;7.90;99.90;;;;;;6178022;28;20127;-77
2023/11/11 00:37:01;;;;;;;1.65;1.00;;;8.00;99.90;;;;;;6175391;28;20050;-77
2023/11/11 00:40:05;;;;;;;1.63;1.05;;;8.00;99.90;;;;;;6174812;28;20046;-75
2023/11/11 00:43:07;;;;;;;0.88;0.85;;;8.00;99.90;;;;;;6174777;28;20043;-75
2023/11/11 00:46:09;;;;;;;1.00;1.00;;;8.00;99.90;;;;;;6159259;28;20050;-76
2023/11/11 00:49:11;;;;;;;1.27;0.63;;;8.10;99.90;;;;;;6176897;28;20054;-77
2023/11/11 00:52:13;;;;;;;0.82;0.82;;;8.10;99.90;;;;;;6178469;28;20051;-76
2023/11/11 00:55:16;;;;;;;0.85;0.75;;;8.10;99.90;;;;;;6162285;28;20039;-80
2023/11/11 00:58:19;;;;;;;0.43;0.43;;;8.10;99.90;;;;;;6168028;28;20048;-76
2023/11/11 01:01:21;;;;;;;0.68;0.63;;;8.10;99.90;;;;;;6165825;28;20055;-77
2023/11/11 01:04:23;;;;;;;0.52;0.52;;;8.10;99.90;;;;;;6153206;28;20055;-76
2023/11/11 01:07:25;;;;;;;0.52;0.43;;;8.10;99.90;;;;;;6164727;28;20106;-76
2023/11/11 01:10:28;;;;;;;2.95;1.00;;;8.10;99.90;;;;;;6168832;28;20050;-76
2023/11/11 01:13:30;;;;;;;0.77;0.52;;;8.00;99.90;;;;;;6163649;28;20051;-76
2023/11/11 01:16:31;;;;;;;3.05;0.73;;;8.00;99.90;;;;;;6169270;28;20134;-75
2023/11/11 01:19:33;;;;;;;0.55;0.55;;;8.00;99.90;;;;;;6157936;28;20619;-76
2023/11/11 01:22:35;;;;;;;0.63;0.60;;;8.00;99.90;;;;;;6162682;28;20050;-76
2023/11/11 01:25:38;;;;;;;1.55;0.80;;;8.00;99.90;;;;;;6169024;28;20052;-76
2023/11/11 01:28:40;;;;;;;3.25;0.70;;;8.00;99.90;;;;;;6173376;28;20050;-76
2023/11/11 01:31:42;;;;;;;0.60;0.60;;;8.10;99.90;;;;;;6171827;28;20057;-75
2023/11/11 01:34:44;;;;;;;1.50;0.88;;;8.10;99.90;;;;;;6173296;28;20590;-77
2023/11/11 01:37:45;;;;;;;0.60;0.60;;;8.10;99.90;;;;;;6173719;28;20047;-77
2023/11/11 01:40:49;;;;;;;2.70;0.77;;;8.00;99.90;;;;;;6161158;28;20046;-76
2023/11/11 01:43:52;;;;;;;1.95;0.95;;;8.10;99.90;;;;;;6160994;28;20043;-76
2023/11/11 01:46:53;;;;;;;1.30;0.82;;;8.10;99.90;;;;;;6171075;28;20050;-76
2023/11/11 01:49:56;;;;;;;0.80;0.70;;;8.10;99.90;;;;;;6159775;28;20044;-77
2023/11/11 01:53:08;;;;;;;10.23;0.93;;;8.00;99.90;;;;;;6170853;28;20043;-75
2023/11/11 02:19:52;;;;;;;1.52;0.60;;;7.90;99.90;;;;;;6171163;28;20047;-76
2023/11/11 02:22:54;;;;;;;2.08;0.95;;;7.90;99.90;;;;;;6172635;28;20055;-75
2023/11/11 02:25:57;;;;;;;0.90;0.70;;;8.00;99.90;;;;;;6164853;28;20045;-77
2023/11/11 02:28:59;;;;;;;0.63;0.63;;;8.00;99.90;;;;;;6172586;28;20080;-77
2023/11/11 02:32:01;;;;;;;0.68;0.68;;;8.00;99.90;;;;;;6165749;28;20423;-77
2023/11/11 02:35:03;;;;;;;0.22;0.22;;;8.00;99.90;;;;;;6164607;28;20042;-76
2023/11/11 02:38:05;;;;;;;0.60;0.50;;;8.10;99.90;;;;;;6165004;28;20039;-77
2023/11/11 02:41:08;;;;;;;0.88;0.88;;;8.20;99.90;;;;;;6163481;28;20042;-76
2023/11/11 02:44:11;;;;;;;0.50;0.40;;;8.20;99.90;;;;;;6175603;28;20042;-78
2023/11/11 02:47:13;;;;;;;0.43;0.43;;;8.20;99.90;;;;;;6166396;28;20527;-78
2023/11/11 02:50:15;;;;;;;0.90;0.52;;;8.20;99.90;;;;;;6158982;28;20049;-78
2023/11/11 03:05:30;;;;;;;0.45;0.45;;;8.20;99.90;;;;;;6165941;28;20039;-77
2023/11/11 03:08:33;;;;;;;0.73;0.63;;;8.30;99.90;;;;;;6166435;28;20051;-78
2023/11/11 03:19:50;;;;;;;1.02;0.93;;;8.20;99.90;;;;;;6168167;28;20038;-77
2023/11/11 03:27:18;;;;;;;1.77;0.75;;;8.20;99.90;;;;;;6167768;28;20034;-77
2023/11/11 03:30:20;;;;;;;1.00;0.90;;;8.20;99.90;;;;;;6173298;28;20050;-78
2023/11/11 03:33:41;;;;;;;2.28;1.33;;;8.20;99.90;;;;;;6166296;28;20049;-78
2023/11/11 03:52:32;;;;;;;2.22;1.60;;;7.90;99.90;;;;;;6166378;28;20031;-77
2023/11/11 03:55:33;;;;;;;2.10;1.40;;;7.90;99.90;;;;;;6178785;28;20043;-77
2023/11/11 03:58:35;;;;;;;2.05;1.70;;;7.80;99.90;;;;;;6178289;28;20060;-77
2023/11/11 04:01:37;;;;;;;2.05;1.60;;;7.80;99.90;;;;;;6174303;28;20043;-77
2023/11/11 04:04:39;;;;;;;4.07;2.10;;;7.80;99.90;;;;;;6165472;28;20038;-78
2023/11/11 04:07:42;;;;;;;1.48;1.20;;;7.80;99.90;;;;;;6179157;28;20415;-78
2023/11/11 04:10:45;;;;;;;2.63;1.73;;;7.70;99.90;;;;;;6171036;28;20047;-77
2023/11/11 04:13:47;;;;;;;3.00;1.95;;;7.70;99.90;;;;;;6169948;28;20117;-76
2023/11/11 04:16:49;;;;;;;6.45;2.45;;;7.70;99.90;;;;;;6178601;28;20109;-77
2023/11/11 04:19:51;;;;;;;1.92;1.73;;;7.70;99.90;;;;;;6170734;28;20186;-78
2023/11/11 04:22:54;;;;;;;2.42;2.22;;;7.70;99.90;;;;;;6178513;28;20122;-77
2023/11/11 04:25:56;;;;;;;7.65;2.03;;;7.60;99.90;;;;;;6171755;28;20038;-77
2023/11/11 04:28:58;;;;;;;4.65;2.40;;;7.60;99.90;;;;;;6165544;28;20047;-78
2023/11/11 04:31:59;;;;;;;5.63;2.00;;;7.60;99.90;;;;;;6170019;28;20094;-77
2023/11/11 04:35:01;;;;;;;2.13;1.70;;;7.60;99.90;;;;;;6176102;28;20046;-78
2023/11/11 04:38:08;;;;;;;4.60;2.30;;;7.50;99.90;;;;;;6170192;28;20039;-78
2023/11/11 04:41:11;;;;;;;2.53;1.58;;;7.50;99.90;;;;;;6170639;28;20110;-77
2023/11/11 04:44:13;;;;;;;4.80;2.58;;;7.60;99.90;;;;;;6171134;28;20039;-78
2023/11/11 04:47:14;;;;;;;6.63;2.47;;;7.50;99.90;;;;;;6173291;28;20053;-77
2023/11/11 04:50:16;;;;;;;7.32;2.53;;;7.50;99.90;;;;;;6174216;28;20053;-78
2023/11/11 04:53:19;;;;;;;4.53;2.00;;;7.50;99.90;;;;;;6171001;28;20046;-78
2023/11/11 04:56:21;;;;;;;4.75;2.63;;;7.50;99.90;;;;;;6164118;28;20057;-77
2023/11/11 04:59:22;;;;;;;6.15;2.30;;;7.40;99.90;;;;;;6162657;28;20043;-78
2023/11/11 05:02:25;;;;;;;4.40;2.00;;;7.40;99.90;;;;;;6170397;28;20542;-77
2023/11/11 05:05:27;;;;;;;10.75;2.72;;;7.30;99.90;;;;;;6163549;28;20055;-78
2023/11/11 05:08:30;;;;;;;1.55;1.45;;;7.20;99.90;;;;;;6168748;28;20051;-78
2023/11/11 05:11:32;;;;;;;3.10;2.17;;;7.20;99.90;;;;;;6162191;28;20047;-77
2023/11/11 05:14:33;;;;;;;4.50;2.85;;;7.30;99.90;;;;;;6166454;28;20126;-77
2023/11/11 05:17:35;;;;;;;4.28;2.42;;;7.30;99.90;;;;;;6166394;28;20051;-76
2023/11/11 05:20:39;;;;;;;7.55;2.15;;;7.30;99.90;;;;;;6166610;28;20054;-76
2023/11/11 05:23:42;;;;;;;7.43;1.85;;;7.30;99.90;;;;;;6172190;28;20500;-77
2023/11/11 05:26:43;;;;;;;9.13;2.63;;;7.30;99.90;;;;;;6161425;28;20043;-76
2023/11/11 05:29:45;;;;;;;3.65;2.22;;;7.40;99.90;;;;;;6162591;28;20688;-76
2023/11/11 05:32:47;;;;;;;1.92;1.63;;;7.40;99.90;;;;;;6163725;28;20047;-76
2023/11/11 05:35:49;;;;;;;2.75;1.95;;;7.50;99.90;;;;;;6166511;28;20042;-76
2023/11/11 05:38:52;;;;;;;9.98;2.78;;;7.50;99.90;;;;;;6162124;28;20058;-77
2023/11/11 05:41:53;;;;;;;5.22;2.47;;;7.50;99.90;;;;;;6162149;28;20049;-76
2023/11/11 05:44:55;;;;;;;3.78;2.08;;;7.60;99.90;;;;;;6159583;28;20047;-77
2023/11/11 05:47:57;;;;;;;2.85;1.98;;;7.60;99.90;;;;;;6165573;28;20043;-76
2023/11/11 05:50:58;;;;;;;3.15;2.10;;;7.60;99.90;;;;;;6165649;28;20049;-76
2023/11/11 05:54:02;;;;;;;3.45;2.25;;;7.50;99.90;;;;;;6160648;28;20045;-77
2023/11/11 05:57:04;;;;;;;4.05;2.55;;;7.50;99.90;;;;;;6163214;28;20058;-76
2023/11/11 06:00:11;;;;;;;3.95;1.98;;;7.40;99.90;;;;;;6166013;28;20050;-77
2023/11/11 06:03:13;;;;;;;2.50;1.83;;;7.40;99.90;;;;;;6158502;28;20099;-77
2023/11/11 06:06:14;;;;;;;3.90;2.65;;;7.40;99.90;;;;;;6163925;28;20519;-76
2023/11/11 06:09:18;;;;;;;5.32;2.45;;;7.40;99.90;;;;;;6158173;28;20043;-75
2023/11/11 06:12:20;;;;;;;4.55;3.10;;;7.30;99.90;;;;;;6165126;28;20130;-76
2023/11/11 06:15:22;;;;;;;2.40;1.50;;;7.40;99.90;;;;;;6165059;28;20081;-76
2023/11/11 06:18:24;;;;;;;7.00;2.15;;;7.40;99.90;;;;;;6157033;28;20051;-77
2023/11/11 06:21:26;;;;;;;8.65;3.33;;;7.40;99.90;;;;;;6164505;28;20882;-76
2023/11/11 06:24:29;;;;;;;2.35;2.03;;;7.40;99.90;;;;;;6165974;28;20051;-77
2023/11/11 06:27:31;;;;;;;4.97;2.10;;;7.40;99.90;;;;;;6159214;28;20053;-78
2023/11/11 06:30:33;;;;;;;6.90;2.75;;;7.50;99.90;;;;;;6164509;28;20062;-77
2023/11/11 06:33:34;;;;;;;6.25;2.63;;;7.50;99.90;;;;;;6165494;28;20051;-77
2023/11/11 06:36:36;;;;;;;3.10;2.05;;;7.50;99.90;;;;;;6159159;28;20051;-77
2023/11/11 06:39:39;;;;;;;3.20;2.45;;;7.50;99.90;;;;;;6174449;28;20053;-78
2023/11/11 06:42:41;;;;;;;5.38;3.65;;;7.50;99.90;;;;;;6158338;28;20058;-78
2023/11/11 06:45:43;;;;;;;3.15;2.03;;;7.50;99.90;;;;;;6173079;28;20054;-78
2023/11/11 06:48:44;;;;;;;2.25;1.73;;;7.60;99.90;;;;;;6166037;28;20051;-77
2023/11/11 06:51:46;;;;;;;4.75;1.88;;;7.60;99.90;;;;;;6166355;28;20059;-77
2023/11/11 06:54:49;;;;;;;3.35;1.60;;;7.60;99.90;;;;;;6166069;28;20043;-77
2023/11/11 06:57:51;;;;;;;6.97;3.00;;;7.70;99.90;;;;;;6170436;28;20039;-78
2023/11/11 07:00:53;;;;;;;3.25;2.33;;;7.70;99.90;;;;;;6164852;28;20051;-78
2023/11/11 07:03:56;;;;;;;4.70;2.08;;;7.70;99.90;;;;;;6162263;28;20101;-78
2023/11/11 07:06:58;;;;;;;6.03;2.50;;;7.70;99.90;;;;;;6160989;28;20043;-77
2023/11/11 07:10:01;;;;;;;4.63;2.28;;;7.70;99.90;;;;;;6161394;28;20043;-77
2023/11/11 07:13:03;;;;;;;3.60;2.05;;;7.70;99.90;;;;;;6160076;28;20061;-77
2023/11/11 07:16:05;;;;;;;3.10;2.35;;;7.80;99.90;;;;;;6161657;28;20126;-77
2023/11/11 07:19:07;;;;;;;2.95;2.20;;;7.80;99.90;;;;;;6158914;28;20053;-77
2023/11/11 07:22:09;;;;;;;1.80;1.58;;;7.80;99.90;;;;;;6161656;28;20419;-78
2023/11/11 07:25:12;;;;;;;4.25;2.70;;;7.80;99.90;;;;;;6165248;28;20416;-78
2023/11/11 07:28:15;;;;;;;4.38;2.10;;;7.90;99.90;;;;;;6165498;28;20042;-77
2023/11/11 07:31:17;;;;;;;2.90;2.05;;;7.90;99.90;;;;;;6165548;28;20125;-78
2023/11/11 07:34:19;;;;;;;2.90;2.10;;;7.90;99.90;;;;;;6158784;28;20051;-78
2023/11/11 07:37:22;;;;;;;3.95;3.10;;;7.90;99.90;;;;;;6168451;28;20053;-78
2023/11/11 07:40:26;;;;;;;5.22;2.00;;;7.90;99.90;;;;;;6159938;28;20058;-78
2023/11/11 07:43:28;;;;;;;5.30;2.00;;;7.90;99.90;;;;;;6167235;28;20047;-78
2023/11/11 07:46:29;;;;;;;7.60;2.33;;;7.90;99.90;;;;;;6160671;28;20053;-77
2023/11/11 07:49:32;;;;;;;2.45;2.10;;;8.00;99.90;;;;;;6164843;28;20065;-78
2023/11/11 07:52:34;;;;;;;3.10;2.05;;;8.00;99.90;;;;;;6157323;28;20055;-77
2023/11/11 07:55:37;;;;;;;2.65;1.70;;;8.00;99.90;;;;;;6163196;28;20050;-77
2023/11/11 07:58:39;;;;;;;5.45;1.85;;;8.00;99.90;;;;;;6158524;28;20059;-77
2023/11/11 08:01:41;;;;;;;4.05;2.33;;;8.10;99.90;;;;;;6165990;28;20047;-77
2023/11/11 08:04:43;;;;;;;3.05;2.28;;;8.10;99.90;;;;;;6163934;28;20050;-76
2023/11/11 08:07:45;;;;;;;6.03;2.47;;;8.10;99.90;;;;;;6159673;28;20060;-77
2023/11/11 08:10:48;;;;;;;3.22;2.35;;;8.20;99.90;;;;;;6163246;28;20061;-77
2023/11/11 08:13:50;;;;;;;4.47;2.28;;;8.20;99.90;;;;;;6164583;28;20048;-75
2023/11/11 08:16:52;;;;;;;3.03;1.67;;;8.30;99.90;;;;;;6159047;28;20074;-78
2023/11/11 08:19:54;;;;;;;2.05;1.85;;;8.30;99.90;;;;;;6169764;28;20137;-77
2023/11/11 08:22:56;;;;;;;7.00;1.98;;;8.30;99.90;;;;;;6164012;28;20130;-76
2023/11/11 08:25:59;;;;;;;2.38;1.98;;;8.40;99.90;;;;;;6159412;28;20527;-77
2023/11/11 08:29:01;;;;;;;2.83;1.67;;;8.40;99.90;;;;;;6159866;28;20104;-77
2023/11/11 08:32:03;;;;;;;8.93;2.70;;;8.40;99.90;;;;;;6160605;28;20431;-77
2023/11/11 08:35:06;;;;;;;3.00;1.77;;;8.40;99.90;;;;;;6167994;28;20503;-77
2023/11/11 08:38:08;;;;;;;2.67;1.90;;;8.40;99.90;;;;;;6166202;28;20054;-77
2023/11/11 08:41:12;;;;;;;8.38;6.75;;;8.60;99.90;;;;;;6165087;28;20045;-77
2023/11/11 08:44:14;;;;;;;4.57;2.20;;;9.00;99.90;;;;;;6168486;28;20560;-77
2023/11/11 08:47:16;;;;;;;8.65;3.08;;;9.50;99.90;;;;;;6167024;28;20535;-78
2023/11/11 08:50:19;;;;;;;4.97;2.25;;;9.80;99.90;;;;;;6168876;28;20047;-77
2023/11/11 08:53:20;;;;;;;4.57;1.58;;;10.00;99.90;;;;;;6168308;28;20082;-77
2023/11/11 08:56:24;;;;;;;3.72;2.10;;;10.30;99.90;;;;;;6161976;28;20054;-78
2023/11/11 08:59:25;;;;;;;1.85;1.70;;;10.60;99.90;;;;;;6166134;28;20055;-77
2023/11/11 09:02:27;;;;;;;3.47;2.60;;;10.80;99.90;;;;;;6170587;28;20537;-77
2023/11/11 09:05:29;;;;;;;3.05;1.70;;;10.90;99.90;;;;;;6164057;28;20153;-76
2023/11/11 09:08:30;;;;;;;6.80;2.42;;;11.00;99.90;;;;;;6174587;28;20061;-76
2023/11/11 09:11:37;;;;;;;3.65;2.10;;;11.10;99.90;;;;;;6175274;28;20050;-79
2023/11/11 09:14:39;;;;;;;4.07;1.50;;;11.20;99.90;;;;;;6167220;28;20059;-75
2023/11/11 09:17:41;;;;;;;4.90;1.95;;;11.30;99.90;;;;;;6158457;28;20074;-76
2023/11/11 09:20:43;;;;;;;2.60;2.30;;;11.50;99.90;;;;;;6156074;28;20619;-75
2023/11/11 09:23:45;;;;;;;5.43;2.45;;;11.50;99.90;;;;;;6158516;28;20047;-78
2023/11/11 09:26:50;;;;;;;3.67;1.65;;;11.60;99.90;;;;;;6177607;28;20515;-79
2023/11/11 09:29:52;;;;;;;5.53;2.08;;;11.80;99.90;;;;;;6188662;28;20054;-76
2023/11/11 09:32:58;;;;;;;4.82;1.90;;;11.60;99.90;;;;;;6160291;28;20055;-78
2023/11/11 09:36:00;;;;;;;3.50;2.22;;;11.50;99.90;;;;;;6162902;28;20042;-76
2023/11/11 09:39:04;;;;;;;4.00;1.98;;;11.80;99.90;;;;;;6164012;28;20159;-77
2023/11/11 09:42:08;;;;;;;2.63;1.60;;;11.70;99.90;;;;;;6167961;28;20055;-79
2023/11/11 09:45:12;;;;;;;3.53;1.83;;;11.60;99.90;;;;;;6164870;28;20054;-78
2023/11/11 09:48:14;;;;;;;3.22;2.13;;;11.60;99.90;;;;;;6159999;28;20058;-77
2023/11/11 09:51:17;;;;;;;1.65;1.55;;;11.80;99.90;;;;;;6165715;28;20505;-77
2023/11/11 09:54:19;;;;;;;3.15;1.88;;;12.00;99.90;;;;;;6163244;28;20058;-78
2023/11/11 09:57:23;;;;;;;2.40;1.83;;;12.20;99.90;;;;;;6170255;28;20166;-78
2023/11/11 10:00:27;;;;;;;1.67;1.42;;;12.40;99.90;;;;;;6171030;28;20055;-76
2023/11/11 10:03:29;;;;;;;3.17;1.63;;;12.70;99.90;;;;;;6166388;28;20554;-78
2023/11/11 10:06:31;;;;;;;2.65;1.25;;;13.00;99.90;;;;;;6169158;28;20523;-80
2023/11/11 10:09:33;;;;;;;1.83;1.58;;;12.60;99.90;;;;;;6161459;28;20043;-78
2023/11/11 10:12:37;;;;;;;4.60;1.70;;;12.20;99.90;;;;;;6168982;28;20061;-76
2023/11/11 10:15:39;;;;;;;5.15;1.70;;;11.90;99.90;;;;;;6154455;28;20059;-77
2023/11/11 10:18:41;;;;;;;4.13;1.25;;;11.60;99.90;;;;;;6152065;28;20527;-77
2023/11/11 10:21:43;;;;;;;6.40;1.75;;;11.70;99.90;;;;;;6154507;28;20531;-79
2023/11/11 10:24:46;;;;;;;3.40;2.70;;;11.80;99.90;;;;;;6156798;28;20051;-77
2023/11/11 10:27:50;;;;;;;1.70;1.55;;;11.70;99.90;;;;;;6154565;28;20055;-77
2023/11/11 10:30:52;;;;;;;3.42;1.33;;;11.50;99.90;;;;;;6152538;28;20125;-76
2023/11/11 10:33:53;;;;;;;3.55;1.80;;;11.10;99.90;;;;;;6154551;28;20047;-76
2023/11/11 10:36:55;;;;;;;4.25;1.58;;;11.00;99.90;;;;;;6153680;28;20051;-77
2023/11/11 10:39:57;;;;;;;3.67;1.38;;;11.20;99.90;;;;;;6156532;28;23540;-77
2023/11/11 10:43:01;;;;;;;3.33;1.25;;;11.40;99.90;;;;;;6154863;28;20654;-80
2023/11/11 10:46:04;;;;;;;5.15;2.08;;;11.70;99.90;;;;;;6156099;28;20043;-74
2023/11/11 10:49:08;;;;;;;5.15;3.58;;;11.90;99.90;;;;;;6154762;28;20531;-76
2023/11/11 10:52:12;;;;;;;11.32;7.70;;;12.30;99.90;;;;;;6161117;28;20125;-77
2023/11/11 10:55:13;;;;;;;6.13;4.60;;;12.70;99.90;;;;;;6162484;28;20054;-77
2023/11/11 10:58:18;;;;;;;5.65;5.03;;;13.10;99.90;;;;;;6163412;28;20043;-79
2023/11/11 11:01:21;;;;;;;72.40;35.75;;;13.10;99.90;;;;;;6161759;28;20043;-78
2023/11/11 11:04:27;;;;;;;13.75;9.13;;;13.10;99.90;;;;;;6165752;28;20062;-79
2023/11/11 11:07:34;;;;;;;21.60;10.35;;;13.20;99.90;;;;;;6167864;28;20047;-78
2023/11/11 11:10:49;;;;;;;52.58;35.33;;;13.00;99.90;;;;;;6165943;28;20377;-77
2023/11/11 11:13:57;;;;;;;48.55;28.10;;;12.50;99.90;;;;;;6163343;28;20047;-76
2023/11/11 11:17:01;;;;;;;59.80;33.28;;;12.20;99.90;;;;;;6159014;28;20043;-76
2023/11/11 11:20:09;;;;;;;55.13;36.30;;;12.20;99.90;;;;;;6161507;28;20098;-76
2023/11/11 11:23:11;;;;;;;;;;;12.60;99.90;;;;;;6160573;28;20042;-77
2023/11/11 11:26:13;;;;;;;31.55;22.95;;;13.00;99.90;;;;;;6160211;28;20386;-77
2023/11/11 11:29:19;;;;;;;28.17;18.73;;;13.20;99.90;;;;;;6156163;28;20054;-77
2023/11/11 11:32:23;;;;;;;14.40;10.95;;;13.40;99.90;;;;;;6156262;28;20051;-78
2023/11/11 11:35:27;;;;;;;7.95;7.20;;;13.70;99.90;;;;;;6159829;28;20050;-76
2023/11/11 11:38:31;;;;;;;7.97;5.03;;;13.70;99.90;;;;;;6157033;28;20068;-77
2023/11/11 11:41:34;;;;;;;7.43;5.63;;;13.80;99.90;;;;;;6151675;28;20051;-76
2023/11/11 11:44:37;;;;;;;3.58;2.33;;;14.10;99.90;;;;;;6152244;28;20054;-76
2023/11/11 11:47:40;;;;;;;5.78;1.73;;;14.30;99.90;;;;;;6148753;28;20057;-77
2023/11/11 11:50:42;;;;;;;2.65;1.45;;;14.30;99.90;;;;;;6152725;28;20051;-76
2023/11/11 11:53:45;;;;;;;4.72;1.33;;;13.90;99.90;;;;;;6154180;28;20051;-79
2023/11/11 11:56:46;;;;;;;3.72;2.35;;;13.20;99.90;;;;;;6152073;28;20054;-76
2023/11/11 12:00:04;;;;;;;3.60;2.40;;;12.60;99.90;;;;;;6152625;28;20058;-77
2023/11/11 12:03:07;;;;;;;1.35;1.20;;;12.20;99.90;;;;;;6155820;28;20053;-78
2023/11/11 12:06:11;;;;;;;1.60;1.50;;;11.90;99.90;;;;;;6151995;28;20057;-79
2023/11/11 12:09:17;;;;;;;4.97;1.95;;;11.60;99.90;;;;;;6160357;28;20055;-76
2023/11/11 12:12:18;;;;;;;2.63;2.08;;;11.30;99.90;;;;;;6160893;28;20138;-77
2023/11/11 12:15:22;;;;;;;3.10;2.78;;;11.10;99.90;;;;;;6162997;28;20047;-77
2023/11/11 12:18:27;;;;;;;2.08;1.88;;;11.00;99.90;;;;;;6167554;28;20051;-76
2023/11/11 12:21:31;;;;;;;8.05;6.00;;;11.00;99.90;;;;;;6174797;28;20042;-76
2023/11/11 12:24:34;;;;;;;20.20;14.68;;;10.90;99.90;;;;;;6175638;28;20055;-76
2023/11/11 12:27:36;;;;;;;11.90;8.93;;;11.00;99.90;;;;;;6160046;28;20101;-76
2023/11/11 12:30:40;;;;;;;17.17;11.07;;;11.10;99.90;;;;;;6167978;28;20055;-77
2023/11/11 12:33:42;;;;;;;21.48;11.75;;;11.30;99.90;;;;;;6152082;28;20487;-77
2023/11/11 12:36:44;;;;;;;29.45;17.65;;;11.40;99.90;;;;;;6167921;28;20409;-76
2023/11/11 12:39:50;;;;;;;16.70;10.70;;;11.40;99.90;;;;;;6152058;28;20057;-77
2023/11/11 12:42:52;;;;;;;21.77;13.88;;;11.20;99.90;;;;;;6159606;28;20488;-77
2023/11/11 12:45:57;;;;;;;29.10;14.48;;;11.00;99.90;;;;;;6160361;28;20500;-77
2023/11/11 12:49:07;;;;;;;53.92;26.33;;;11.00;99.90;;;;;;6165684;28;20062;-77
2023/11/11 12:52:14;;;;;;;40.22;22.05;;;10.90;99.90;;;;;;6159833;28;20460;-77
2023/11/11 12:55:24;;;;;;;52.38;29.92;;;11.00;99.90;;;;;;6171273;28;20042;-77
2023/11/11 12:58:27;;;;;;;59.55;30.10;;;11.00;99.90;;;;;;6162920;28;20050;-77
2023/11/11 13:01:30;;;;;;;18.08;8.77;;;10.90;99.90;;;;;;6168278;28;20138;-77
2023/11/11 13:04:33;;;;;;;8.00;5.82;;;10.90;99.90;;;;;;6162739;28;20530;-77
2023/11/11 13:07:35;;;;;;;4.90;3.75;;;10.90;99.90;;;;;;6157306;28;20039;-77
2023/11/11 13:10:37;;;;;;;2.50;2.20;;;10.80;99.90;;;;;;6167065;28;20050;-77
2023/11/11 13:13:41;;;;;;;2.00;1.58;;;10.80;99.90;;;;;;6166991;28;20542;-77
2023/11/11 13:16:44;;;;;;;2.90;1.00;;;10.70;99.90;;;;;;6152137;28;20051;-77
2023/11/11 13:19:48;;;;;;;1.85;1.35;;;10.60;99.90;;;;;;6159908;28;20051;-77
2023/11/11 13:22:50;;;;;;;7.93;2.83;;;10.40;99.90;;;;;;6160769;28;20047;-77
2023/11/11 13:25:53;;;;;;;3.63;2.22;;;10.40;99.90;;;;;;6174951;28;20149;-77
2023/11/11 13:28:55;;;;;;;1.50;1.40;;;10.30;99.90;;;;;;6166685;28;20055;-76
2023/11/11 13:31:58;;;;;;;0.82;0.60;;;10.30;99.90;;;;;;6173076;28;20051;-79
2023/11/11 13:35:00;;;;;;;1.80;1.30;;;10.20;99.90;;;;;;6166641;28;20527;-77
2023/11/11 13:38:06;;;;;;;5.00;0.85;;;10.20;99.90;;;;;;6160070;28;20047;-80
2023/11/11 13:41:08;;;;;;;2.72;0.90;;;10.20;99.90;;;;;;6172639;28;20046;-79
2023/11/11 13:44:10;;;;;;;0.77;0.63;;;10.20;99.90;;;;;;6176098;28;20082;-77
2023/11/11 13:47:13;;;;;;;0.77;0.50;;;10.20;99.90;;;;;;6155465;28;20050;-77
2023/11/11 13:50:16;;;;;;;0.85;0.85;;;10.20;99.90;;;;;;6161397;28;20125;-77
2023/11/11 13:53:18;;;;;;;1.05;0.60;;;10.30;99.90;;;;;;6174413;28;20042;-79
2023/11/11 13:56:19;;;;;;;0.95;0.70;;;10.60;99.90;;;;;;6168987;28;20055;-78
2023/11/11 13:59:21;;;;;;;0.40;0.40;;;11.10;99.90;;;;;;6169962;28;20050;-77
2023/11/11 14:02:24;;;;;;;1.70;0.40;;;11.50;99.90;;;;;;6161690;28;20051;-77
2023/11/11 14:05:26;;;;;;;0.90;0.57;;;11.70;99.90;;;;;;6154897;28;20047;-78
2023/11/11 14:08:30;;;;;;;0.73;0.70;;;11.70;99.90;;;;;;6174441;28;20054;-79
2023/11/11 14:11:32;;;;;;;1.52;0.95;;;11.70;99.90;;;;;;6168777;28;20107;-77
2023/11/11 14:14:34;;;;;;;0.95;0.73;;;11.70;99.90;;;;;;6165856;28;20121;-78
2023/11/11 14:17:37;;;;;;;0.65;0.65;;;11.70;99.90;;;;;;6171626;28;20050;-77
2023/11/11 14:20:39;;;;;;;3.05;0.80;;;11.60;99.90;;;;;;6152982;28;20047;-78
2023/11/11 14:23:40;;;;;;;1.05;0.90;;;11.60;99.90;;;;;;6157779;28;20062;-77
2023/11/11 14:26:44;;;;;;;1.85;0.80;;;11.50;99.90;;;;;;6160642;28;20043;-78
2023/11/11 14:29:47;;;;;;;0.52;0.52;;;11.50;99.90;;;;;;6165445;28;20047;-78
2023/11/11 14:32:50;;;;;;;37.47;23.27;;;11.40;99.90;;;;;;6165172;28;20051;-78
2023/11/11 14:35:51;;;;;;;9.40;8.52;;;11.30;99.90;;;;;;6173552;28;20060;-78
2023/11/11 14:38:53;;;;;;;5.22;4.72;;;11.30;99.90;;;;;;6157044;28;20098;-77
2023/11/11 14:41:55;;;;;;;3.50;2.88;;;11.30;99.90;;;;;;6157277;28;20042;-79
2023/11/11 14:44:56;;;;;;;4.07;2.58;;;11.40;99.90;;;;;;6149454;28;20047;-78
2023/11/11 14:47:59;;;;;;;1.58;1.05;;;11.60;99.90;;;;;;6161649;28;20050;-78
2023/11/11 14:51:03;;;;;;;3.33;1.05;;;11.70;99.90;;;;;;6173111;28;20055;-79
2023/11/11 14:54:05;;;;;;;2.05;1.02;;;11.80;99.90;;;;;;6165067;28;20042;-77
2023/11/11 14:57:12;;;;;;;1.80;0.88;;;11.80;99.90;;;;;;6165513;28;20047;-77
2023/11/11 15:00:19;;;;;;;2.30;1.20;;;11.60;99.90;;;;;;6166688;28;20419;-77
2023/11/11 15:03:22;;;;;;;4.10;1.30;;;11.40;99.90;;;;;;6168973;28;20047;-78
2023/11/11 15:06:24;;;;;;;3.08;1.50;;;11.20;99.90;;;;;;6161175;28;20308;-78
2023/11/11 15:09:25;;;;;;;2.03;1.38;;;11.00;99.90;;;;;;6155369;28;20424;-78
2023/11/11 15:12:27;;;;;;;2.75;1.80;;;10.80;99.90;;;;;;6155157;28;20412;-77
2023/11/11 15:15:29;;;;;;;2.30;1.88;;;10.50;99.90;;;;;;6154809;28;20038;-78
2023/11/11 15:18:32;;;;;;;3.40;1.70;;;10.30;99.90;;;;;;6153392;28;20046;-78
2023/11/11 15:21:36;;;;;;;2.85;1.60;;;10.20;99.90;;;;;;6153132;28;20420;-78
2023/11/11 15:24:38;;;;;;;23.83;14.55;;;10.10;99.90;;;;;;6155212;28;20130;-79
2023/11/11 15:27:41;;;;;;;4.65;3.42;;;10.00;99.90;;;;;;6154251;28;20042;-77
2023/11/11 15:30:43;;;;;;;2.83;1.30;;;9.80;99.90;;;;;;6155790;28;22741;-78
2023/11/11 15:33:47;;;;;;;1.75;1.10;;;9.70;99.90;;;;;;6156631;28;20440;-75
2023/11/11 15:36:49;;;;;;;2.55;1.50;;;9.60;99.90;;;;;;6158910;28;20050;-79
2023/11/11 15:39:51;;;;;;;2.22;1.02;;;9.50;99.90;;;;;;6167936;28;20050;-77
2023/11/11 15:42:52;;;;;;;2.42;2.22;;;9.40;99.90;;;;;;6162307;28;20047;-76
2023/11/11 15:45:54;;;;;;;5.53;2.17;;;9.30;99.90;;;;;;6176580;28;20522;-76
2023/11/11 15:48:57;;;;;;;2.17;1.02;;;9.30;99.90;;;;;;6160584;28;20488;-78
2023/11/11 15:51:59;;;;;;;2.92;1.13;;;9.20;99.90;;;;;;6169233;28;20051;-78
2023/11/11 15:55:02;;;;;;;3.63;2.22;;;9.10;99.90;;;;;;6176184;28;20054;-77
2023/11/11 15:58:05;;;;;;;9.23;3.03;;;9.00;99.90;;;;;;6160046;28;20057;-76
2023/11/11 16:01:08;;;;;;;1.65;1.52;;;8.90;99.90;;;;;;6175010;28;20089;-78
2023/11/11 16:04:12;;;;;;;1.45;1.02;;;8.90;99.90;;;;;;6154103;28;20130;-77
2023/11/11 16:07:14;;;;;;;2.90;1.10;;;8.90;99.90;;;;;;6171112;28;20053;-77
2023/11/11 16:10:15;;;;;;;3.13;2.22;;;8.80;99.90;;;;;;6160395;28;20054;-77
2023/11/11 16:13:17;;;;;;;2.60;1.00;;;8.70;99.90;;;;;;6176525;28;20038;-77
2023/11/11 16:16:19;;;;;;;1.02;0.93;;;8.60;99.90;;;;;;6176527;28;20058;-77
2023/11/11 16:19:22;;;;;;;1.88;1.00;;;8.40;99.90;;;;;;6168447;28;20050;-77
2023/11/11 16:22:24;;;;;;;0.65;0.65;;;8.30;99.90;;;;;;6168503;28;20067;-77
2023/11/11 16:25:26;;;;;;;4.38;1.65;;;8.20;99.90;;;;;;6165789;28;20397;-77
2023/11/11 16:28:28;;;;;;;3.88;1.33;;;8.10;99.90;;;;;;6173510;28;20048;-77
2023/11/11 16:31:32;;;;;;;12.50;3.92;;;8.20;99.90;;;;;;6169454;28;20046;-77
2023/11/11 16:34:35;;;;;;;19.42;7.70;;;8.20;99.90;;;;;;6176946;28;20408;-77
2023/11/11 16:37:36;;;;;;;8.70;3.45;;;8.30;99.90;;;;;;6156028;28;20049;-77
2023/11/11 16:40:38;;;;;;;6.40;1.92;;;8.40;99.90;;;;;;6161452;28;20054;-78
2023/11/11 16:43:41;;;;;;;4.25;2.75;;;8.40;99.90;;;;;;6167443;28;20058;-77
2023/11/11 16:46:43;;;;;;;6.28;3.03;;;8.30;99.90;;;;;;6178250;28;20054;-77
2023/11/11 16:49:46;;;;;;;4.05;1.95;;;8.30;99.90;;;;;;6164465;28;20053;-77
2023/11/11 16:52:48;;;;;;;2.40;1.25;;;8.20;99.90;;;;;;6177130;28;20093;-76
2023/11/11 16:55:50;;;;;;;5.32;1.73;;;8.00;99.90;;;;;;6163202;28;20459;-78
2023/11/11 16:58:52;;;;;;;2.55;1.52;;;8.00;99.90;;;;;;6171632;28;20536;-78
2023/11/11 17:01:54;;;;;;;3.92;3.17;;;7.80;99.90;;;;;;6169021;28;20046;-77